Time;durP1;ratioP1;P1;durP2;ratioP2;P2;SDS_P1;SDS_P2;PMS_P1;PMS_P2;Temp;Humidity;BMP_temperature;BMP_pressure;BME280_temperature;BME280_humidity;BME280_pressure;Samples;Min_cycle;Max_cycle;Signal;HPM_P1;HPM_P2
2022/10/14 00:01:57;;;;;;;86.85;20.83;;;11.00;99.90;;;;;;5057936;28;20033;-57
2022/10/14 00:04:23;;;;;;;82.07;20.73;;;11.30;99.90;;;;;;5059861;28;20045;-57
2022/10/14 00:06:49;;;;;;;92.13;19.60;;;11.20;99.90;;;;;;5059210;28;20087;-57
2022/10/14 00:09:14;;;;;;;65.88;19.65;;;11.00;99.90;;;;;;5059586;28;20048;-57
2022/10/14 00:11:40;;;;;;;102.35;20.70;;;11.10;99.90;;;;;;5059094;28;20053;-56
2022/10/14 00:14:10;;;;;;;67.22;19.60;;;10.90;99.90;;;;;;5059501;28;20041;-57
2022/10/14 00:16:38;;;;;;;80.88;20.13;;;11.30;99.90;;;;;;5059421;28;20045;-57
2022/10/14 00:19:05;;;;;;;63.40;19.00;;;11.00;99.90;;;;;;5058952;28;20040;-57
2022/10/14 00:21:32;;;;;;;77.72;21.60;;;10.80;99.90;;;;;;5059840;28;20051;-58
2022/10/14 00:23:58;;;;;;;112.25;19.73;;;10.90;99.90;;;;;;5059080;28;20059;-58
2022/10/14 00:26:30;;;;;;;101.47;19.70;;;10.90;99.90;;;;;;5059581;28;20052;-55
2022/10/14 00:28:56;;;;;;;92.85;20.50;;;11.10;99.90;;;;;;5059119;28;20052;-57
2022/10/14 00:31:22;;;;;;;136.57;20.98;;;11.00;99.90;;;;;;5057807;28;20048;-57
2022/10/14 00:33:48;;;;;;;108.18;21.00;;;10.70;99.90;;;;;;5059270;28;20120;-57
2022/10/14 00:36:17;;;;;;;108.60;20.90;;;11.10;99.90;;;;;;5058436;28;20071;-57
2022/10/14 00:38:44;;;;;;;89.18;18.80;;;10.90;99.90;;;;;;5060070;28;20056;-57
2022/10/14 00:41:12;;;;;;;83.82;18.73;;;11.00;99.90;;;;;;5078439;28;20101;-58
2022/10/14 00:43:59;;;;;;;52.60;17.98;;;11.00;99.90;;;;;;5079294;28;20535;-57
2022/10/14 00:46:28;;;;;;;57.38;17.52;;;11.00;99.90;;;;;;5079053;28;20076;-57
2022/10/14 00:48:55;;;;;;;104.57;18.48;;;10.80;99.90;;;;;;5078894;28;20045;-57
2022/10/14 00:51:21;;;;;;;116.25;20.02;;;10.70;99.90;;;;;;5079594;28;20040;-57
2022/10/14 00:53:47;;;;;;;103.30;18.70;;;10.90;99.90;;;;;;5076976;28;20056;-57
2022/10/14 00:56:16;;;;;;;103.95;18.90;;;10.80;99.90;;;;;;5079456;28;20474;-57
2022/10/14 00:58:44;;;;;;;99.95;19.33;;;10.70;99.90;;;;;;5076573;28;20037;-57
2022/10/14 01:01:09;;;;;;;82.03;18.52;;;10.60;99.90;;;;;;5059137;28;20049;-57
2022/10/14 01:03:35;;;;;;;103.97;19.73;;;10.90;99.90;;;;;;5058866;28;20075;-57
2022/10/14 01:06:38;;;;;;;130.35;20.65;;;10.90;99.90;;;;;;5058703;28;20072;-57
2022/10/14 01:09:06;;;;;;;;;;;10.70;99.90;;;;;;5059579;28;20568;-57
2022/10/14 01:11:56;;;;;;;105.82;20.15;;;10.40;99.90;;;;;;5058263;28;20300;-57
2022/10/14 01:15:03;;;;;;;83.55;16.60;;;10.50;99.90;;;;;;5058735;28;20433;-58
2022/10/14 01:17:37;;;;;;;148.95;19.80;;;10.80;99.90;;;;;;5054705;28;20061;-57
2022/10/14 01:20:47;;;;;;;115.30;18.65;;;10.40;99.90;;;;;;5058437;28;20041;-57
2022/10/14 01:23:23;;;;;;;83.38;17.50;;;10.80;99.90;;;;;;5057681;28;20053;-58
2022/10/14 01:26:03;;;;;;;55.72;16.08;;;10.50;99.90;;;;;;5058969;28;20044;-57
2022/10/14 01:29:06;;;;;;;85.03;17.77;;;10.50;99.90;;;;;;5058227;28;20095;-57
2022/10/14 01:31:37;;;;;;;163.25;19.40;;;10.80;99.90;;;;;;5058314;28;20064;-58
2022/10/14 01:34:08;;;;;;;106.88;18.50;;;10.60;99.90;;;;;;5059069;28;20084;-58
2022/10/14 01:36:48;;;;;;;91.47;17.90;;;10.60;99.90;;;;;;5060292;28;20056;-57
2022/10/14 01:39:25;;;;;;;166.25;21.30;;;10.40;99.90;;;;;;5067311;28;20068;-58
2022/10/14 01:42:14;;;;;;;106.30;18.33;;;10.50;99.90;;;;;;5080797;28;20080;-57
2022/10/14 01:44:44;;;;;;;160.52;19.45;;;10.40;99.90;;;;;;5081964;28;20058;-57
2022/10/14 01:47:13;;;;;;;176.40;19.80;;;10.40;99.90;;;;;;5081358;28;20097;-57
2022/10/14 01:49:45;;;;;;;130.73;17.85;;;10.40;99.90;;;;;;5081954;28;20116;-58
2022/10/14 01:52:18;;;;;;;110.18;16.60;;;10.60;99.90;;;;;;5082250;28;20071;-58
2022/10/14 01:54:48;;;;;;;155.07;19.45;;;10.40;99.90;;;;;;5081903;28;20070;-57
2022/10/14 01:57:18;;;;;;;125.68;18.58;;;10.60;99.90;;;;;;5082016;28;20037;-58
2022/10/14 01:59:46;;;;;;;117.63;17.58;;;10.40;99.90;;;;;;5071570;28;20041;-58
2022/10/14 02:02:12;;;;;;;175.52;18.45;;;10.60;99.90;;;;;;5061435;28;20048;-58
2022/10/14 02:04:38;;;;;;;117.57;17.15;;;10.60;99.90;;;;;;5061980;28;20044;-58
2022/10/14 02:07:11;;;;;;;115.80;16.77;;;10.40;99.90;;;;;;5060004;28;20040;-58
2022/10/14 02:09:37;;;;;;;126.95;17.60;;;10.30;99.90;;;;;;5061965;28;20049;-58
2022/10/14 02:12:18;;;;;;;73.25;15.43;;;10.30;99.90;;;;;;5061613;28;20130;-58
2022/10/14 02:14:51;;;;;;;74.68;14.93;;;10.50;99.90;;;;;;5061256;28;20052;-58
2022/10/14 02:17:40;;;;;;;103.60;16.17;;;10.70;99.90;;;;;;5061890;28;20043;-58
2022/10/14 02:20:12;;;;;;;117.45;17.00;;;10.70;99.90;;;;;;5061490;28;20071;-57
2022/10/14 02:22:43;;;;;;;100.03;16.37;;;10.50;99.90;;;;;;5061852;28;20515;-57
2022/10/14 02:25:15;;;;;;;99.10;14.97;;;10.80;99.90;;;;;;5061745;28;20542;-58
2022/10/14 02:27:44;;;;;;;93.22;14.18;;;10.30;99.90;;;;;;5060918;28;20060;-58
2022/10/14 02:30:10;;;;;;;186.55;17.58;;;10.30;99.90;;;;;;5061826;28;20057;-58
2022/10/14 02:32:38;;;;;;;118.68;14.35;;;10.70;99.90;;;;;;5061136;28;20067;-58
2022/10/14 02:35:06;;;;;;;127.25;14.15;;;10.30;99.90;;;;;;5061663;28;20059;-58
2022/10/14 02:37:33;;;;;;;66.82;13.07;;;10.40;99.90;;;;;;5061045;28;20095;-57
2022/10/14 02:40:06;;;;;;;139.27;14.07;;;10.60;99.90;;;;;;5072113;28;20048;-58
2022/10/14 02:42:32;;;;;;;102.95;14.02;;;10.20;99.90;;;;;;5080286;28;20040;-58
2022/10/14 02:44:59;;;;;;;92.55;13.45;;;10.40;99.90;;;;;;5079348;28;20055;-58
2022/10/14 02:47:25;;;;;;;106.82;14.60;;;10.30;99.90;;;;;;5080309;28;20041;-58
2022/10/14 02:49:51;;;;;;;121.00;15.32;;;10.30;99.90;;;;;;5080819;28;20037;-58
2022/10/14 02:52:17;;;;;;;58.28;12.52;;;10.30;99.90;;;;;;5081058;28;20096;-58
2022/10/14 02:54:43;;;;;;;54.78;11.90;;;10.40;99.90;;;;;;5080524;28;20076;-58
2022/10/14 02:57:09;;;;;;;113.57;13.65;;;10.70;99.90;;;;;;5079127;28;20123;-58
2022/10/14 02:59:34;;;;;;;97.97;13.25;;;10.20;99.90;;;;;;5081076;28;20052;-58
2022/10/14 03:02:00;;;;;;;86.28;12.70;;;10.40;99.90;;;;;;5078916;28;20041;-58
2022/10/14 03:04:26;;;;;;;100.07;12.60;;;10.30;99.90;;;;;;5080971;28;20167;-58
2022/10/14 03:06:52;;;;;;;180.05;15.27;;;10.20;99.90;;;;;;5080473;28;20040;-58
2022/10/14 03:09:18;;;;;;;104.95;12.95;;;10.40;99.90;;;;;;5080585;28;20059;-58
2022/10/14 03:11:44;;;;;;;118.03;13.15;;;10.10;99.90;;;;;;5080286;28;20057;-58
2022/10/14 03:14:10;;;;;;;80.78;11.95;;;10.10;99.90;;;;;;5080633;28;20484;-59
2022/10/14 03:16:35;;;;;;;67.20;11.45;;;10.10;99.90;;;;;;5080835;28;20169;-58
2022/10/14 03:19:01;;;;;;;58.70;10.30;;;10.50;99.90;;;;;;5079822;28;20406;-58
2022/10/14 03:21:27;;;;;;;58.25;10.23;;;10.20;99.90;;;;;;5080568;28;20066;-58
2022/10/14 03:23:52;;;;;;;97.78;11.30;;;10.30;99.90;;;;;;5080094;28;20127;-58
2022/10/14 03:26:18;;;;;;;73.85;11.23;;;10.40;99.90;;;;;;5080307;28;20040;-58
2022/10/14 03:28:44;;;;;;;88.60;11.32;;;10.20;99.90;;;;;;5080082;28;20044;-58
2022/10/14 03:31:10;;;;;;;56.80;9.43;;;10.20;99.90;;;;;;5080266;28;20135;-58
2022/10/14 03:33:36;;;;;;;99.80;11.48;;;10.10;99.90;;;;;;5080232;28;20652;-58
2022/10/14 03:36:02;;;;;;;49.90;9.30;;;10.30;99.90;;;;;;5079625;28;20095;-58
2022/10/14 03:38:27;;;;;;;70.00;10.75;;;10.40;99.90;;;;;;5080360;28;20092;-58
2022/10/14 03:40:53;;;;;;;87.53;11.50;;;10.10;99.90;;;;;;5079460;28;20048;-58
2022/10/14 03:43:19;;;;;;;102.75;11.00;;;10.00;99.90;;;;;;5080436;28;20503;-58
2022/10/14 03:45:45;;;;;;;76.28;10.68;;;10.10;99.90;;;;;;5079599;28;20036;-57
2022/10/14 03:48:10;;;;;;;64.00;10.38;;;10.40;99.90;;;;;;5078745;28;20394;-58
2022/10/14 03:50:36;;;;;;;123.72;12.40;;;10.30;99.90;;;;;;5078562;28;20048;-58
2022/10/14 03:53:02;;;;;;;95.82;11.38;;;10.00;99.90;;;;;;5078075;28;20192;-58
2022/10/14 03:55:28;;;;;;;132.70;14.27;;;10.10;99.90;;;;;;5080264;28;20128;-58
2022/10/14 03:57:54;;;;;;;73.03;11.93;;;10.20;99.90;;;;;;5079161;28;20059;-58
2022/10/14 04:00:20;;;;;;;131.73;13.27;;;10.40;99.90;;;;;;5079960;28;20041;-59
2022/10/14 04:02:46;;;;;;;79.72;12.63;;;10.40;99.90;;;;;;5079315;28;20044;-57
2022/10/14 04:05:12;;;;;;;115.10;12.35;;;10.10;99.90;;;;;;5079853;28;20044;-58
2022/10/14 04:07:38;;;;;;;158.98;15.32;;;10.40;99.90;;;;;;5079333;28;20644;-58
2022/10/14 04:10:04;;;;;;;160.38;15.98;;;10.20;99.90;;;;;;5078968;28;20048;-57
2022/10/14 04:12:30;;;;;;;58.08;11.77;;;10.40;99.90;;;;;;5061748;28;20056;-58
2022/10/14 04:14:56;;;;;;;72.07;12.10;;;10.10;99.90;;;;;;5078901;28;20060;-58
2022/10/14 04:17:23;;;;;;;109.57;13.52;;;10.10;99.90;;;;;;5079696;28;20045;-57
2022/10/14 04:19:49;;;;;;;72.35;12.15;;;10.10;99.90;;;;;;5079096;28;20051;-58
2022/10/14 04:22:15;;;;;;;107.03;13.45;;;10.20;99.90;;;;;;5061435;28;20136;-58
2022/10/14 04:24:40;;;;;;;67.25;12.93;;;10.00;99.90;;;;;;5079382;28;20037;-57
2022/10/14 04:27:06;;;;;;;65.10;12.90;;;10.50;99.90;;;;;;5079358;28;20055;-59
2022/10/14 04:29:32;;;;;;;102.53;14.27;;;10.60;99.90;;;;;;5079775;28;20037;-56
2022/10/14 04:31:57;;;;;;;89.00;13.60;;;10.40;99.90;;;;;;5078691;28;20041;-58
2022/10/14 04:34:23;;;;;;;130.20;14.93;;;10.50;99.90;;;;;;5079376;28;20079;-59
2022/10/14 04:36:49;;;;;;;66.78;12.10;;;10.10;99.90;;;;;;5078714;28;20529;-58
2022/10/14 04:39:14;;;;;;;48.40;10.93;;;10.40;99.90;;;;;;5079248;28;20051;-58
2022/10/14 04:41:41;;;;;;;34.85;9.88;;;10.10;99.90;;;;;;5078885;28;20120;-57
2022/10/14 04:44:06;;;;;;;81.47;12.13;;;10.40;99.90;;;;;;5079199;28;20052;-57
2022/10/14 04:46:32;;;;;;;104.70;13.48;;;10.20;99.90;;;;;;5077981;28;20048;-57
2022/10/14 04:48:58;;;;;;;40.13;11.73;;;10.40;99.90;;;;;;5078473;28;20055;-57
2022/10/14 04:51:23;;;;;;;30.20;12.02;;;10.40;99.90;;;;;;5079510;28;20047;-57
2022/10/14 04:53:49;;;;;;;55.30;13.43;;;10.40;99.90;;;;;;5078543;28;20104;-57
2022/10/14 04:56:15;;;;;;;54.53;13.27;;;10.20;99.90;;;;;;5079288;28;20109;-57
2022/10/14 04:58:40;;;;;;;35.97;12.40;;;10.60;99.90;;;;;;5075446;28;20047;-57
2022/10/14 05:01:06;;;;;;;66.40;14.15;;;10.20;99.90;;;;;;5059276;28;20096;-57
2022/10/14 05:03:32;;;;;;;97.45;14.45;;;10.60;99.90;;;;;;5058784;28;20060;-58
2022/10/14 05:05:57;;;;;;;95.93;12.52;;;10.20;99.90;;;;;;5057140;28;20041;-58
2022/10/14 05:08:23;;;;;;;42.75;11.20;;;10.50;99.90;;;;;;5059032;28;20052;-58
2022/10/14 05:10:49;;;;;;;83.38;12.00;;;10.20;99.90;;;;;;5059079;28;20061;-57
2022/10/14 05:13:16;;;;;;;66.88;10.98;;;10.40;99.90;;;;;;5062961;28;20059;-56
2022/10/14 05:15:41;;;;;;;40.88;8.73;;;10.30;99.90;;;;;;5062409;28;20079;-56
2022/10/14 05:18:10;;;;;;;77.70;11.10;;;10.30;99.90;;;;;;5061623;28;20084;-57
2022/10/14 05:20:37;;;;;;;26.55;8.70;;;10.40;99.90;;;;;;5062757;28;20051;-58
2022/10/14 05:23:04;;;;;;;52.78;10.32;;;10.20;99.90;;;;;;5061137;28;20091;-58
2022/10/14 05:25:29;;;;;;;35.63;9.68;;;10.40;99.90;;;;;;5082493;28;20079;-57
2022/10/14 05:27:55;;;;;;;44.67;10.00;;;10.30;99.90;;;;;;5082287;28;20029;-57
2022/10/14 05:30:21;;;;;;;59.10;10.35;;;10.50;99.90;;;;;;5082718;28;20056;-57
2022/10/14 05:32:46;;;;;;;19.25;9.15;;;10.40;99.90;;;;;;5081866;28;20238;-58
2022/10/14 05:35:12;;;;;;;53.53;11.13;;;10.10;99.90;;;;;;5082722;28;20040;-57
2022/10/14 05:37:38;;;;;;;26.45;9.30;;;10.50;99.90;;;;;;5082292;28;20623;-57
2022/10/14 05:40:04;;;;;;;62.67;10.65;;;10.50;99.90;;;;;;5081982;28;20045;-57
2022/10/14 05:42:30;;;;;;;22.17;8.73;;;10.40;99.90;;;;;;5082649;28;20040;-57
2022/10/14 05:44:56;;;;;;;36.33;10.55;;;10.40;99.90;;;;;;5081724;28;20240;-57
2022/10/14 05:47:21;;;;;;;26.27;10.13;;;10.40;99.90;;;;;;5079825;28;20036;-57
2022/10/14 05:49:47;;;;;;;51.30;9.75;;;10.30;99.90;;;;;;5075875;28;20053;-57
2022/10/14 05:52:13;;;;;;;51.40;10.73;;;10.40;99.90;;;;;;5078216;28;20078;-57
2022/10/14 05:54:38;;;;;;;41.33;10.13;;;10.00;99.90;;;;;;5077463;28;20045;-56
2022/10/14 05:57:04;;;;;;;20.05;9.48;;;10.40;99.90;;;;;;5077587;28;20029;-57
2022/10/14 05:59:32;;;;;;;62.70;10.52;;;10.20;99.90;;;;;;5077130;28;20048;-57
2022/10/14 06:01:57;;;;;;;56.50;10.85;;;10.00;99.90;;;;;;5077387;28;20048;-57
2022/10/14 06:04:23;;;;;;;33.08;9.77;;;10.00;99.90;;;;;;5077063;28;20051;-57
2022/10/14 06:06:49;;;;;;;39.40;9.82;;;10.40;99.90;;;;;;5077717;28;20070;-56
2022/10/14 06:09:15;;;;;;;30.65;9.32;;;10.30;99.90;;;;;;5077906;28;20040;-57
2022/10/14 06:11:41;;;;;;;23.50;10.18;;;10.40;99.90;;;;;;5076927;28;20048;-57
2022/10/14 06:14:07;;;;;;;40.55;8.82;;;10.00;99.90;;;;;;5077978;28;20049;-57
2022/10/14 06:16:32;;;;;;;57.15;9.65;;;10.20;99.90;;;;;;5078164;28;20084;-57
2022/10/14 06:18:58;;;;;;;27.98;8.73;;;10.40;99.90;;;;;;5077132;28;20040;-57
2022/10/14 06:21:25;;;;;;;24.75;8.98;;;10.20;99.90;;;;;;5077896;28;20508;-58
2022/10/14 06:23:50;;;;;;;77.57;11.07;;;10.10;99.90;;;;;;5076922;28;20045;-57
2022/10/14 06:26:16;;;;;;;60.42;9.85;;;10.50;99.90;;;;;;5078392;28;20067;-57
2022/10/14 06:28:41;;;;;;;65.32;10.00;;;10.10;99.90;;;;;;5077308;28;20045;-57
2022/10/14 06:31:07;;;;;;;70.13;11.10;;;10.30;99.90;;;;;;5077793;28;20055;-57
2022/10/14 06:33:33;;;;;;;54.92;11.70;;;10.10;99.90;;;;;;5077374;28;20040;-57
2022/10/14 06:36:01;;;;;;;79.90;12.25;;;10.10;99.90;;;;;;5076719;28;20049;-57
2022/10/14 06:38:27;;;;;;;118.60;15.38;;;10.10;99.90;;;;;;5077864;28;20055;-57
2022/10/14 06:40:53;;;;;;;42.63;12.68;;;10.30;99.90;;;;;;5076688;28;20049;-57
2022/10/14 06:43:20;;;;;;;77.28;12.65;;;10.50;99.90;;;;;;5077726;28;20048;-57
2022/10/14 06:45:46;;;;;;;55.28;12.38;;;10.20;99.90;;;;;;5075370;28;20104;-57
2022/10/14 06:48:12;;;;;;;88.13;13.23;;;10.10;99.90;;;;;;5077269;28;20086;-57
2022/10/14 06:50:38;;;;;;;128.32;16.98;;;10.20;99.90;;;;;;5077703;28;20116;-57
2022/10/14 06:53:04;;;;;;;129.75;16.45;;;10.20;99.90;;;;;;5076617;28;20044;-57
2022/10/14 06:55:30;;;;;;;54.72;12.57;;;10.60;99.90;;;;;;5077321;28;20077;-58
2022/10/14 06:57:55;;;;;;;43.17;13.05;;;10.10;99.90;;;;;;5075514;28;20044;-57
2022/10/14 07:00:21;;;;;;;112.93;16.83;;;10.50;99.90;;;;;;5077025;28;20067;-57
2022/10/14 07:02:47;;;;;;;65.72;13.57;;;10.70;99.90;;;;;;5076670;28;20044;-57
2022/10/14 07:05:13;;;;;;;100.20;15.00;;;10.40;99.90;;;;;;5077286;28;20471;-57
2022/10/14 07:07:38;;;;;;;59.67;13.82;;;10.50;99.90;;;;;;5075436;28;20060;-57
2022/10/14 07:10:04;;;;;;;45.85;14.43;;;10.60;99.90;;;;;;5076369;28;20040;-57
2022/10/14 07:12:30;;;;;;;37.72;13.95;;;10.70;99.90;;;;;;5076676;28;20053;-57
2022/10/14 07:14:56;;;;;;;72.68;14.38;;;10.80;99.90;;;;;;5075520;28;20055;-56
2022/10/14 07:17:21;;;;;;;122.18;18.58;;;10.70;99.90;;;;;;5076992;28;20471;-57
2022/10/14 07:19:47;;;;;;;51.75;15.90;;;10.40;99.90;;;;;;5074126;28;20512;-57
2022/10/14 07:22:13;;;;;;;49.22;14.60;;;10.80;99.90;;;;;;5076339;28;20677;-56
2022/10/14 07:24:38;;;;;;;70.97;16.58;;;10.50;99.90;;;;;;5074324;28;20048;-57
2022/10/14 07:27:04;;;;;;;49.80;15.07;;;10.90;99.90;;;;;;5075967;28;20140;-57
2022/10/14 07:29:30;;;;;;;94.53;18.30;;;10.50;99.90;;;;;;5075725;28;20079;-57
2022/10/14 07:31:55;;;;;;;65.82;17.67;;;10.60;99.90;;;;;;5074658;28;20036;-57
2022/10/14 07:34:21;;;;;;;75.68;17.38;;;10.80;99.90;;;;;;5074829;28;20044;-58
2022/10/14 07:36:47;;;;;;;49.92;17.08;;;11.10;99.90;;;;;;5074744;28;20143;-57
2022/10/14 07:39:13;;;;;;;91.00;19.35;;;10.70;99.90;;;;;;5076145;28;20056;-57
2022/10/14 07:41:39;;;;;;;67.13;17.70;;;11.00;99.90;;;;;;5075458;28;20547;-57
2022/10/14 07:44:07;;;;;;;65.93;17.15;;;10.80;99.90;;;;;;5075539;28;20036;-57
2022/10/14 07:46:37;;;;;;;60.65;19.23;;;11.20;99.90;;;;;;5075276;28;20045;-57
2022/10/14 07:49:18;;;;;;;92.20;20.08;;;10.80;99.90;;;;;;5074719;28;20047;-57
2022/10/14 07:51:45;;;;;;;57.28;20.17;;;11.20;99.90;;;;;;5074831;28;20057;-57
2022/10/14 07:54:17;;;;;;;59.03;20.25;;;11.10;99.90;;;;;;5075071;28;20068;-57
2022/10/14 07:56:44;;;;;;;57.83;19.08;;;10.80;99.90;;;;;;5075668;28;20033;-57
2022/10/14 07:59:10;;;;;;;50.90;17.50;;;11.30;99.90;;;;;;5074540;28;20078;-56
2022/10/14 08:01:36;;;;;;;58.55;18.65;;;11.40;99.90;;;;;;5075001;28;20056;-57
2022/10/14 08:04:02;;;;;;;55.25;19.80;;;10.90;99.90;;;;;;5074252;28;20094;-57
2022/10/14 08:06:28;;;;;;;59.50;18.23;;;11.40;99.90;;;;;;5074532;28;20087;-57
2022/10/14 08:08:53;;;;;;;61.30;21.20;;;11.30;99.90;;;;;;5076005;28;20044;-57
2022/10/14 08:11:22;;;;;;;54.83;19.67;;;10.90;99.90;;;;;;5074249;28;20524;-57
2022/10/14 08:13:48;;;;;;;54.35;19.92;;;11.50;99.90;;;;;;5074609;28;20076;-57
2022/10/14 08:16:22;;;;;;;54.67;19.30;;;11.00;99.90;;;;;;5075077;28;20423;-57
2022/10/14 08:18:49;;;;;;;49.88;18.45;;;11.60;99.90;;;;;;5073717;28;20033;-57
2022/10/14 08:21:16;;;;;;;53.50;21.02;;;11.40;99.90;;;;;;5075024;28;20037;-57
2022/10/14 08:23:42;;;;;;;61.13;21.63;;;11.10;99.90;;;;;;5073842;28;20048;-58
2022/10/14 08:26:17;;;;;;;58.05;20.33;;;11.60;99.90;;;;;;5073886;28;20050;-57
2022/10/14 08:28:43;;;;;;;51.10;20.85;;;11.60;99.90;;;;;;5074815;28;20076;-57
2022/10/14 08:31:09;;;;;;;55.40;20.55;;;11.20;99.90;;;;;;5074539;28;20055;-57
2022/10/14 08:33:34;;;;;;;60.30;21.15;;;11.70;99.90;;;;;;5074704;28;20133;-57
2022/10/14 08:36:00;;;;;;;54.28;21.05;;;11.40;99.90;;;;;;5073648;28;20613;-57
2022/10/14 08:38:27;;;;;;;61.92;21.27;;;11.30;99.90;;;;;;5074450;28;20079;-57
2022/10/14 08:41:11;;;;;;;60.22;22.30;;;11.80;99.90;;;;;;5073346;28;20044;-57
2022/10/14 08:44:08;;;;;;;64.68;22.23;;;11.80;99.90;;;;;;5055145;28;20033;-57
2022/10/14 08:46:45;;;;;;;57.80;20.80;;;11.50;99.90;;;;;;5055578;28;20041;-57
2022/10/14 08:49:28;;;;;;;48.78;19.38;;;11.80;99.90;;;;;;5056435;28;20055;-57
2022/10/14 08:52:24;;;;;;;50.78;19.30;;;11.40;99.90;;;;;;5057527;28;20482;-57
2022/10/14 08:55:19;;;;;;;49.58;19.77;;;11.90;99.90;;;;;;5057551;28;20064;-56
2022/10/14 08:57:55;;;;;;;51.17;20.60;;;11.70;99.90;;;;;;5035843;28;20416;-57
2022/10/14 09:00:21;;;;;;;52.17;19.20;;;12.00;99.90;;;;;;5073895;28;20040;-58
2022/10/14 09:02:49;;;;;;;48.78;19.73;;;11.80;99.90;;;;;;5077728;28;20083;-57
2022/10/14 09:05:24;;;;;;;57.13;21.83;;;11.90;99.90;;;;;;5078065;28;20032;-58
2022/10/14 09:07:54;;;;;;;52.70;21.80;;;11.80;99.90;;;;;;5077712;28;20053;-56
2022/10/14 09:10:31;;;;;;;52.10;20.98;;;12.10;99.90;;;;;;5075292;28;20037;-58
2022/10/14 09:13:03;;;;;;;45.80;20.38;;;11.60;99.90;;;;;;5041549;28;1062907;-57
2022/10/14 09:15:38;;;;;;;52.67;23.63;;;11.70;99.90;;;;;;5078321;28;20414;-56
2022/10/14 09:18:05;;;;;;;48.83;21.35;;;11.70;99.90;;;;;;5079080;28;20060;-57
2022/10/14 09:20:31;;;;;;;48.53;20.55;;;12.20;99.90;;;;;;5078829;28;20066;-56
2022/10/14 09:23:05;;;;;;;55.28;23.33;;;12.00;99.90;;;;;;5078446;28;20471;-57
2022/10/14 09:25:33;;;;;;;52.38;21.80;;;11.80;99.90;;;;;;5078852;28;20033;-57
2022/10/14 09:27:59;;;;;;;55.50;24.35;;;11.90;99.90;;;;;;5078519;28;20047;-57
2022/10/14 09:30:27;;;;;;;58.63;25.05;;;11.90;99.90;;;;;;5078940;28;20325;-57
2022/10/14 09:32:54;;;;;;;48.83;22.15;;;11.80;99.90;;;;;;5078573;28;20072;-56
2022/10/14 09:35:28;;;;;;;53.60;26.83;;;12.00;99.90;;;;;;5078688;28;20556;-57
2022/10/14 09:37:54;;;;;;;46.53;24.33;;;11.90;99.90;;;;;;5079051;28;20045;-57
2022/10/14 09:40:25;;;;;;;56.83;26.45;;;12.40;99.90;;;;;;5077700;28;20040;-57
2022/10/14 09:43:09;;;;;;;51.35;24.10;;;12.40;99.90;;;;;;5078898;28;20044;-59
2022/10/14 09:45:57;;;;;;;55.08;25.55;;;12.20;99.90;;;;;;5078441;28;20051;-57
2022/10/14 09:48:33;;;;;;;56.00;26.02;;;12.00;99.90;;;;;;5077534;28;20032;-56
2022/10/14 09:51:07;;;;;;;54.28;25.70;;;12.00;99.90;;;;;;5078771;28;20054;-56
2022/10/14 09:53:45;;;;;;;50.15;23.70;;;12.00;99.90;;;;;;5077480;28;20541;-57
2022/10/14 09:56:11;;;;;;;58.42;26.40;;;12.50;99.90;;;;;;5076101;28;20420;-57
2022/10/14 09:58:56;;;;;;;55.63;25.13;;;12.40;99.90;;;;;;5081384;28;20038;-57
2022/10/14 10:02:04;;;;;;;62.20;26.85;;;12.50;99.90;;;;;;5079919;28;20036;-57
2022/10/14 10:04:35;;;;;;;51.60;24.00;;;12.40;99.90;;;;;;5081844;28;20059;-57
2022/10/14 10:07:22;;;;;;;52.97;24.50;;;12.20;99.90;;;;;;5079996;28;20040;-57
2022/10/14 10:09:56;;;;;;;56.58;25.77;;;12.20;99.90;;;;;;5080143;28;20055;-58
2022/10/14 10:12:28;;;;;;;56.05;25.33;;;12.50;99.90;;;;;;5081255;28;20170;-58
2022/10/14 10:15:02;;;;;;;53.58;24.90;;;12.10;99.90;;;;;;5079808;28;20436;-57
2022/10/14 10:17:34;;;;;;;52.60;25.17;;;12.50;99.90;;;;;;5078716;28;20047;-57
2022/10/14 10:20:27;;;;;;;50.85;24.35;;;12.60;99.90;;;;;;5080129;28;20059;-56
2022/10/14 10:22:56;;;;;;;62.17;28.23;;;12.30;99.90;;;;;;5079467;28;20037;-58
2022/10/14 10:25:25;;;;;;;57.85;27.27;;;12.60;99.90;;;;;;5076433;28;20036;-57
2022/10/14 10:27:52;;;;;;;48.28;23.63;;;12.40;99.90;;;;;;5080508;28;20092;-57
2022/10/14 10:30:19;;;;;;;58.20;27.35;;;12.30;99.90;;;;;;5081343;28;20289;-57
2022/10/14 10:32:56;;;;;;;57.80;26.23;;;12.80;99.90;;;;;;5080722;28;20046;-57
2022/10/14 10:35:25;;;;;;;53.35;24.38;;;12.90;99.90;;;;;;5081133;28;20045;-57
2022/10/14 10:38:12;;;;;;;50.38;25.73;;;12.40;99.90;;;;;;5081327;28;20053;-57
2022/10/14 10:40:47;;;;;;;51.95;23.98;;;12.90;99.90;;;;;;5078964;28;20044;-56
2022/10/14 10:43:35;;;;;;;49.55;24.00;;;12.90;99.90;;;;;;5078134;28;20043;-58
2022/10/14 10:46:15;;;;;;;49.65;23.40;;;12.70;99.90;;;;;;5079380;28;20570;-57
2022/10/14 10:48:53;;;;;;;47.35;21.98;;;12.40;99.90;;;;;;5078871;28;20051;-57
2022/10/14 10:51:30;;;;;;;47.88;21.60;;;12.90;99.90;;;;;;5078822;28;20048;-58
2022/10/14 10:54:05;;;;;;;44.40;21.40;;;12.50;99.90;;;;;;5076583;28;20044;-57
2022/10/14 10:56:54;;;;;;;48.88;23.60;;;13.00;99.90;;;;;;5077622;28;20559;-57
2022/10/14 11:00:06;;;;;;;42.95;20.38;;;12.70;99.90;;;;;;5076455;28;20510;-57
2022/10/14 11:03:11;;;;;;;45.35;21.17;;;12.70;99.90;;;;;;5046437;28;20064;-57
2022/10/14 11:06:05;;;;;;;41.03;20.00;;;13.30;99.90;;;;;;5077006;28;21590;-57
2022/10/14 11:12:14;;;;;;;38.17;18.45;;;12.70;99.90;;;;;;5079562;28;20059;-57
2022/10/14 11:14:54;;;;;;;40.22;19.73;;;12.90;99.90;;;;;;5068763;28;20106;-57
2022/10/14 11:17:52;;;;;;;36.10;17.88;;;13.40;99.90;;;;;;5079889;28;20046;-57
2022/10/14 11:20:27;;;;;;;33.30;16.05;;;12.90;99.90;;;;;;5078008;28;20539;-57
2022/10/14 11:23:03;;;;;;;35.67;17.27;;;13.00;99.90;;;;;;5079347;28;20047;-57
2022/10/14 11:25:48;;;;;;;32.70;16.17;;;13.40;99.90;;;;;;5078342;28;20526;-57
2022/10/14 11:28:35;;;;;;;31.67;15.32;;;12.90;99.90;;;;;;5078007;28;20041;-57
2022/10/14 11:31:25;;;;;;;33.03;15.70;;;13.10;99.90;;;;;;5079259;28;20033;-57
2022/10/14 11:34:03;;;;;;;28.88;14.70;;;12.90;99.90;;;;;;5078395;28;20424;-57
2022/10/14 11:36:48;;;;;;;28.58;14.40;;;12.80;99.90;;;;;;5077343;28;20360;-57
2022/10/14 11:39:22;;;;;;;26.60;12.63;;;13.50;99.90;;;;;;5078415;28;20118;-57
2022/10/14 11:41:51;;;;;;;26.58;12.50;;;13.20;99.90;;;;;;5077461;28;20056;-57
2022/10/14 11:44:36;;;;;;;25.35;12.20;;;12.90;99.90;;;;;;5078917;28;20036;-58
2022/10/14 11:47:12;;;;;;;21.00;10.95;;;13.60;99.90;;;;;;5077095;28;20044;-58
2022/10/14 11:50:00;;;;;;;24.50;11.73;;;13.60;99.90;;;;;;5078803;28;20068;-58
2022/10/14 11:52:34;;;;;;;21.17;10.65;;;13.50;99.90;;;;;;5076994;28;20040;-58
2022/10/14 11:55:12;;;;;;;24.10;11.73;;;12.90;99.90;;;;;;5079180;28;20048;-57
2022/10/14 11:57:47;;;;;;;21.15;10.63;;;13.00;99.90;;;;;;5071905;28;20193;-58
2022/10/14 12:00:17;;;;;;;22.67;10.25;;;12.90;99.90;;;;;;5069606;28;20033;-58
2022/10/14 12:03:20;;;;;;;22.40;10.73;;;13.40;99.90;;;;;;5069374;28;20032;-58
2022/10/14 12:06:03;;;;;;;24.35;9.88;;;13.50;99.90;;;;;;5059074;28;20048;-58
2022/10/14 12:08:43;;;;;;;20.15;9.68;;;12.90;99.90;;;;;;5059666;28;20061;-58
2022/10/14 12:11:41;;;;;;;19.77;9.68;;;13.60;99.90;;;;;;5058856;28;20456;-58
2022/10/14 12:14:23;;;;;;;19.48;9.57;;;13.00;99.90;;;;;;5058796;28;20045;-58
2022/10/14 12:16:49;;;;;;;17.83;8.20;;;13.60;99.90;;;;;;5059282;28;20500;-58
2022/10/14 12:19:26;;;;;;;18.38;9.35;;;13.50;99.90;;;;;;5058485;28;20044;-58
2022/10/14 12:22:03;;;;;;;19.80;9.40;;;13.00;99.90;;;;;;5059484;28;20049;-57
2022/10/14 12:24:37;;;;;;;19.48;9.10;;;13.00;99.90;;;;;;5058706;28;20048;-58
2022/10/14 12:27:07;;;;;;;16.52;8.88;;;13.50;99.90;;;;;;5058995;28;20049;-58
2022/10/14 12:29:42;;;;;;;19.05;9.32;;;13.30;99.90;;;;;;5059361;28;20048;-58
2022/10/14 12:32:19;;;;;;;18.73;9.07;;;13.40;99.90;;;;;;5058765;28;20056;-58
2022/10/14 12:34:47;;;;;;;17.55;9.50;;;13.60;99.90;;;;;;5059396;28;20052;-58
2022/10/14 12:37:33;;;;;;;16.92;9.18;;;13.50;99.90;;;;;;5057404;28;20535;-57
2022/10/14 12:40:02;;;;;;;16.15;8.43;;;13.00;99.90;;;;;;5069443;28;20052;-57
2022/10/14 12:42:33;;;;;;;16.58;8.35;;;13.00;99.90;;;;;;5078155;28;20055;-58
2022/10/14 12:45:03;;;;;;;18.67;10.05;;;13.00;99.90;;;;;;5078509;28;20108;-57
2022/10/14 12:47:33;;;;;;;18.17;9.02;;;12.90;99.90;;;;;;5078109;28;20373;-57
2022/10/14 12:50:13;;;;;;;19.92;9.43;;;13.60;99.90;;;;;;5078836;28;20044;-56